createdAt,value
2022-12-04T00:00:35.291Z,1005.2
2022-12-04T00:01:52.134Z,1005.2
2022-12-04T00:03:09.179Z,1005.2
2022-12-04T00:04:26.584Z,1005.2
2022-12-04T00:05:43.195Z,1005.2
2022-12-04T00:07:00.138Z,1005.1
2022-12-04T00:08:17.203Z,1005.1
2022-12-04T00:09:34.177Z,1005.1
2022-12-04T00:10:51.228Z,1005.1
2022-12-04T00:12:08.174Z,1005.1
2022-12-04T00:13:25.132Z,1005.2
2022-12-04T00:15:16.320Z,1005.2
2022-12-04T00:15:59.247Z,1005.2
2022-12-04T00:17:16.179Z,1005.2
2022-12-04T00:18:33.145Z,1005.2
2022-12-04T00:19:50.157Z,1005.2
2022-12-04T00:21:07.155Z,1005.2
2022-12-04T00:22:24.225Z,1005.2
2022-12-04T00:23:41.161Z,1005.2
2022-12-04T00:24:58.184Z,1005.2
2022-12-04T00:26:15.159Z,1005.2
2022-12-04T00:27:32.218Z,1005.2
2022-12-04T00:28:49.174Z,1005.2
2022-12-04T00:30:06.188Z,1005.2
2022-12-04T00:31:23.273Z,1005.3
2022-12-04T00:32:40.208Z,1005.3
2022-12-04T00:33:57.338Z,1005.2
2022-12-04T00:35:14.205Z,1005.2
2022-12-04T00:36:31.179Z,1005.2
2022-12-04T00:37:48.186Z,1005.2
2022-12-04T00:39:05.215Z,1005.1
2022-12-04T00:40:23.007Z,1005.1
2022-12-04T00:41:40.196Z,1005.1
2022-12-04T00:42:57.189Z,1005.1
2022-12-04T00:44:14.429Z,1005.1
2022-12-04T00:45:31.573Z,1005.1
2022-12-04T00:46:49.210Z,1005.1
2022-12-04T00:48:06.201Z,1005.2
2022-12-04T00:49:23.200Z,1005.2
2022-12-04T00:50:40.251Z,1005.2
2022-12-04T00:51:57.200Z,1005.1
2022-12-04T00:53:14.216Z,1005.1
2022-12-04T00:54:31.457Z,1005.1
2022-12-04T00:55:48.319Z,1005.1
2022-12-04T00:57:05.206Z,1005.1
2022-12-04T00:58:22.210Z,1005.1
2022-12-04T00:59:39.209Z,1005.1
2022-12-04T01:00:56.322Z,1005
2022-12-04T01:02:13.239Z,1005
2022-12-04T01:03:30.259Z,1005
2022-12-04T01:04:47.217Z,1005
2022-12-04T01:06:04.677Z,1005
2022-12-04T01:07:21.210Z,1004.9
2022-12-04T01:08:38.376Z,1004.9
2022-12-04T01:09:55.479Z,1004.9
2022-12-04T01:11:12.291Z,1004.9
2022-12-04T01:12:29.251Z,1004.9
2022-12-04T01:13:46.227Z,1004.9
2022-12-04T01:15:03.675Z,1004.9
2022-12-04T01:16:20.321Z,1004.9
2022-12-04T01:17:37.252Z,1004.9
2022-12-04T01:18:54.527Z,1004.9
2022-12-04T01:20:11.313Z,1004.9
2022-12-04T01:21:28.555Z,1004.9
2022-12-04T01:22:45.452Z,1004.9
2022-12-04T01:24:02.240Z,1004.9
2022-12-04T01:25:19.238Z,1004.9
2022-12-04T01:26:36.373Z,1004.9
2022-12-04T01:27:53.276Z,1004.8
2022-12-04T01:29:10.250Z,1004.8
2022-12-04T01:30:27.280Z,1004.8
2022-12-04T01:31:44.338Z,1004.7
2022-12-04T01:33:01.328Z,1004.7
2022-12-04T01:34:18.240Z,1004.7
2022-12-04T01:35:35.669Z,1004.7
2022-12-04T01:36:53.319Z,1004.7
2022-12-04T01:38:10.266Z,1004.7
2022-12-04T01:39:27.255Z,1004.7
2022-12-04T01:40:44.252Z,1004.7
2022-12-04T01:42:01.300Z,1004.7
2022-12-04T01:43:18.292Z,1004.7
2022-12-04T01:44:35.311Z,1004.7
2022-12-04T01:45:52.334Z,1004.7
2022-12-04T01:47:09.290Z,1004.7
2022-12-04T01:48:26.295Z,1004.7
2022-12-04T01:49:43.278Z,1004.6
2022-12-04T01:51:00.276Z,1004.6
2022-12-04T01:52:17.267Z,1004.6
2022-12-04T01:53:34.304Z,1004.6
2022-12-04T01:54:51.272Z,1004.6
2022-12-04T01:56:08.286Z,1004.6
2022-12-04T01:57:25.366Z,1004.5
2022-12-04T01:58:42.339Z,1004.5
2022-12-04T01:59:59.288Z,1004.6
2022-12-04T02:01:16.348Z,1004.5
2022-12-04T02:02:33.360Z,1004.6
2022-12-04T02:03:50.353Z,1004.6
2022-12-04T02:05:07.317Z,1004.6
2022-12-04T02:06:24.315Z,1004.6
2022-12-04T02:07:41.369Z,1004.5
2022-12-04T02:08:58.496Z,1004.6
2022-12-04T02:10:15.364Z,1004.6
2022-12-04T02:11:32.321Z,1004.6
2022-12-04T02:12:49.305Z,1004.5
2022-12-04T02:14:06.361Z,1004.5
2022-12-04T02:15:23.304Z,1004.5
2022-12-04T02:16:40.379Z,1004.5
2022-12-04T02:17:57.361Z,1004.5
2022-12-04T02:19:14.316Z,1004.5
2022-12-04T02:20:31.310Z,1004.5
2022-12-04T02:21:48.331Z,1004.5
2022-12-04T02:23:05.322Z,1004.6
2022-12-04T02:24:22.827Z,1004.6
2022-12-04T02:25:39.556Z,1004.6
2022-12-04T02:26:56.315Z,1004.6
2022-12-04T02:28:13.331Z,1004.5
2022-12-04T02:29:30.379Z,1004.5
2022-12-04T02:30:47.438Z,1004.5
2022-12-04T02:32:04.343Z,1004.5
2022-12-04T02:33:21.347Z,1004.5
2022-12-04T02:34:38.323Z,1004.5
2022-12-04T02:35:55.339Z,1004.6
2022-12-04T02:37:12.354Z,1004.6
2022-12-04T02:38:29.357Z,1004.6
2022-12-04T02:39:46.317Z,1004.6
2022-12-04T02:41:03.340Z,1004.6
2022-12-04T02:42:20.343Z,1004.5
2022-12-04T02:43:37.399Z,1004.5
2022-12-04T02:44:54.367Z,1004.4
2022-12-04T02:46:11.645Z,1004.4
2022-12-04T02:47:28.339Z,1004.5
2022-12-04T02:48:45.392Z,1004.5
2022-12-04T02:50:02.464Z,1004.5
2022-12-04T02:51:19.363Z,1004.5
2022-12-04T02:52:36.383Z,1004.5
2022-12-04T02:53:53.343Z,1004.5
2022-12-04T02:55:10.411Z,1004.6
2022-12-04T02:56:27.381Z,1004.6
2022-12-04T02:57:44.382Z,1004.6
2022-12-04T02:59:01.424Z,1004.6
2022-12-04T03:00:18.496Z,1004.5
2022-12-04T03:01:35.461Z,1004.6
2022-12-04T03:02:52.479Z,1004.6
2022-12-04T03:04:09.380Z,1004.6
2022-12-04T03:05:26.407Z,1004.6
2022-12-04T03:06:43.476Z,1004.6
2022-12-04T03:08:00.464Z,1004.6
2022-12-04T03:09:17.378Z,1004.5
2022-12-04T03:10:34.402Z,1004.5
2022-12-04T03:11:51.453Z,1004.5
2022-12-04T03:13:08.382Z,1004.5
2022-12-04T03:14:25.379Z,1004.5
2022-12-04T03:15:42.500Z,1004.5
2022-12-04T03:16:59.477Z,1004.6
2022-12-04T03:18:16.424Z,1004.6
2022-12-04T03:19:33.382Z,1004.5
2022-12-04T03:20:50.421Z,1004.5
2022-12-04T03:22:07.422Z,1004.5
2022-12-04T03:23:24.392Z,1004.5
2022-12-04T03:24:41.393Z,1004.5
2022-12-04T03:25:58.397Z,1004.5
2022-12-04T03:27:15.417Z,1004.4
2022-12-04T03:28:32.393Z,1004.4
2022-12-04T03:29:49.393Z,1004.4
2022-12-04T03:31:07.131Z,1004.5
2022-12-04T03:32:24.405Z,1004.5
2022-12-04T03:33:41.407Z,1004.5
2022-12-04T03:34:58.445Z,1004.5
2022-12-04T03:36:15.484Z,1004.6
2022-12-04T03:37:32.403Z,1004.5
2022-12-04T03:38:49.442Z,1004.6
2022-12-04T03:40:06.452Z,1004.5
2022-12-04T03:41:23.404Z,1004.5
2022-12-04T03:42:40.446Z,1004.5
2022-12-04T03:43:57.484Z,1004.5
2022-12-04T03:45:14.435Z,1004.5
2022-12-04T03:46:31.519Z,1004.5
2022-12-04T03:47:48.412Z,1004.5
2022-12-04T03:49:05.485Z,1004.5
2022-12-04T03:50:22.423Z,1004.5
2022-12-04T03:51:39.424Z,1004.5
2022-12-04T03:52:56.453Z,1004.5
2022-12-04T03:54:13.438Z,1004.4
2022-12-04T03:55:30.463Z,1004.4
2022-12-04T03:56:47.430Z,1004.4
2022-12-04T03:58:04.620Z,1004.4
2022-12-04T03:59:21.449Z,1004.5
2022-12-04T04:00:38.724Z,1004.4
2022-12-04T04:01:55.537Z,1004.4
2022-12-04T04:03:12.453Z,1004.4
2022-12-04T04:04:29.441Z,1004.4
2022-12-04T04:05:46.482Z,1004.4
2022-12-04T04:07:03.466Z,1004.4
2022-12-04T04:08:20.552Z,1004.5
2022-12-04T04:09:37.474Z,1004.5
2022-12-04T04:10:54.485Z,1004.4
2022-12-04T04:12:11.463Z,1004.4
2022-12-04T04:13:28.512Z,1004.4
2022-12-04T04:14:45.513Z,1004.4
2022-12-04T04:16:02.480Z,1004.4
2022-12-04T04:17:19.488Z,1004.4
2022-12-04T04:18:36.507Z,1004.4
2022-12-04T04:19:53.875Z,1004.4
2022-12-04T04:21:10.462Z,1004.4
2022-12-04T04:22:27.457Z,1004.3
2022-12-04T04:23:44.469Z,1004.3
2022-12-04T04:25:02.063Z,1004.3
2022-12-04T04:26:19.473Z,1004.3
2022-12-04T04:27:36.468Z,1004.3
2022-12-04T04:28:53.539Z,1004.3
2022-12-04T04:30:10.575Z,1004.3
2022-12-04T04:31:27.533Z,1004.3
2022-12-04T04:32:44.524Z,1004.3
2022-12-04T04:34:01.542Z,1004.3
2022-12-04T04:35:18.539Z,1004.3
2022-12-04T04:36:35.485Z,1004.2
2022-12-04T04:37:52.486Z,1004.2
2022-12-04T04:39:09.486Z,1004.2
2022-12-04T04:40:26.527Z,1004.1
2022-12-04T04:41:43.521Z,1004.2
2022-12-04T04:43:00.501Z,1004.2
2022-12-04T04:44:17.520Z,1004.2
2022-12-04T04:45:34.542Z,1004.2
2022-12-04T04:46:51.537Z,1004.2
2022-12-04T04:48:08.515Z,1004.2
2022-12-04T04:49:25.526Z,1004.2
2022-12-04T04:50:42.541Z,1004.2
2022-12-04T04:51:59.563Z,1004.2
2022-12-04T04:53:16.518Z,1004.1
2022-12-04T04:54:33.532Z,1004.2
2022-12-04T04:55:50.505Z,1004.1
2022-12-04T04:57:07.518Z,1004.1
2022-12-04T04:58:24.506Z,1004.1
2022-12-04T04:59:41.537Z,1004.1
2022-12-04T05:00:58.514Z,1004.2
2022-12-04T05:02:15.535Z,1004.2
2022-12-04T05:03:32.540Z,1004
2022-12-04T05:04:49.722Z,1004.1
2022-12-04T05:06:06.560Z,1004.1
2022-12-04T05:07:23.531Z,1004.1
2022-12-04T05:08:40.535Z,1004.1
2022-12-04T05:09:57.901Z,1004.1
2022-12-04T05:11:14.576Z,1004.2
2022-12-04T05:12:31.576Z,1004.1
2022-12-04T05:13:48.563Z,1004.1
2022-12-04T05:15:05.730Z,1004.1
2022-12-04T05:16:22.681Z,1004.1
2022-12-04T05:17:39.577Z,1004.1
2022-12-04T05:18:56.585Z,1004.1
2022-12-04T05:20:13.536Z,1004.1
2022-12-04T05:21:30.567Z,1004.1
2022-12-04T05:22:47.643Z,1004.1
2022-12-04T05:24:04.545Z,1004.1
2022-12-04T05:25:21.549Z,1004.1
2022-12-04T05:26:38.553Z,1004.1
2022-12-04T05:27:55.573Z,1004
2022-12-04T05:29:12.547Z,1004.1
2022-12-04T05:30:29.553Z,1004
2022-12-04T05:31:46.648Z,1004.1
2022-12-04T05:33:03.568Z,1004.1
2022-12-04T05:34:20.612Z,1004.1
2022-12-04T05:35:37.577Z,1004.1
2022-12-04T05:36:54.623Z,1004.1
2022-12-04T05:38:11.562Z,1004.1
2022-12-04T05:39:28.566Z,1004.1
2022-12-04T05:40:45.564Z,1004.2
2022-12-04T05:42:02.609Z,1004.2
2022-12-04T05:43:19.644Z,1004.3
2022-12-04T05:44:36.558Z,1004.2
2022-12-04T05:45:53.572Z,1004.2
2022-12-04T05:47:10.648Z,1004.2
2022-12-04T05:48:27.746Z,1004.2
2022-12-04T05:49:44.614Z,1004.2
2022-12-04T05:51:01.626Z,1004.2
2022-12-04T05:52:18.618Z,1004.3
2022-12-04T05:53:35.613Z,1004.3
2022-12-04T05:54:52.614Z,1004.3
2022-12-04T05:56:09.589Z,1004.2
2022-12-04T05:57:29.731Z,1004.2
2022-12-04T05:58:43.642Z,1004.2
2022-12-04T06:00:00.611Z,1004.2
2022-12-04T06:01:17.622Z,1004.3
2022-12-04T06:02:34.693Z,1004.3
2022-12-04T06:03:51.640Z,1004.2
2022-12-04T06:05:08.666Z,1004.2
2022-12-04T06:06:25.597Z,1004.2
2022-12-04T06:07:42.668Z,1004.2
2022-12-04T06:08:59.665Z,1004.2
2022-12-04T06:10:16.753Z,1004.3
2022-12-04T06:11:33.604Z,1004.3
2022-12-04T06:12:50.604Z,1004.3
2022-12-04T06:14:07.625Z,1004.4
2022-12-04T06:15:24.728Z,1004.4
2022-12-04T06:16:41.654Z,1004.4
2022-12-04T06:17:58.632Z,1004.4
2022-12-04T06:19:15.633Z,1004.4
2022-12-04T06:20:32.735Z,1004.4
2022-12-04T06:21:49.614Z,1004.4
2022-12-04T06:23:06.799Z,1004.4
2022-12-04T06:24:23.662Z,1004.5
2022-12-04T06:25:40.701Z,1004.5
2022-12-04T06:27:26.556Z,1004.5
2022-12-04T06:28:14.621Z,1004.5
2022-12-04T06:29:31.668Z,1004.5
2022-12-04T06:30:48.691Z,1004.5
2022-12-04T06:32:05.697Z,1004.5
2022-12-04T06:33:22.677Z,1004.5
2022-12-04T06:34:39.663Z,1004.5
2022-12-04T06:35:56.663Z,1004.6
2022-12-04T06:37:13.635Z,1004.6
2022-12-04T06:38:30.679Z,1004.6
2022-12-04T06:39:47.636Z,1004.6
2022-12-04T06:41:04.681Z,1004.6
2022-12-04T06:42:21.682Z,1004.6
2022-12-04T06:43:38.648Z,1004.6
2022-12-04T06:44:55.650Z,1004.6
2022-12-04T06:46:12.735Z,1004.6
2022-12-04T06:47:29.683Z,1004.6
2022-12-04T06:48:46.698Z,1004.6
2022-12-04T06:50:03.892Z,1004.6
2022-12-04T06:51:20.708Z,1004.6
2022-12-04T06:52:37.672Z,1004.6
2022-12-04T06:53:54.690Z,1004.6
2022-12-04T06:55:11.658Z,1004.6
2022-12-04T06:56:28.670Z,1004.6
2022-12-04T06:57:45.664Z,1004.6
2022-12-04T06:59:03.679Z,1004.7
2022-12-04T07:00:20.693Z,1004.6
2022-12-04T07:01:37.799Z,1004.7
2022-12-04T07:02:54.736Z,1004.7
2022-12-04T07:04:11.706Z,1004.7
2022-12-04T07:05:28.685Z,1004.7
2022-12-04T07:06:45.736Z,1004.7
2022-12-04T07:08:02.807Z,1004.7
2022-12-04T07:09:19.763Z,1004.7
2022-12-04T07:10:36.681Z,1004.7
2022-12-04T07:11:53.724Z,1004.7
2022-12-04T07:13:10.703Z,1004.7
2022-12-04T07:14:27.788Z,1004.6
2022-12-04T07:15:44.852Z,1004.6
2022-12-04T07:17:02.099Z,1004.5
2022-12-04T07:18:18.710Z,1004.5
2022-12-04T07:19:35.695Z,1004.5
2022-12-04T07:20:52.685Z,1004.5
2022-12-04T07:22:09.826Z,1004.5
2022-12-04T07:23:26.693Z,1004.5
2022-12-04T07:24:43.733Z,1004.5
2022-12-04T07:26:00.778Z,1004.5
2022-12-04T07:27:17.780Z,1004.5
2022-12-04T07:28:34.719Z,1004.5
2022-12-04T07:29:51.724Z,1004.5
2022-12-04T07:31:09.338Z,1004.5
2022-12-04T07:32:26.366Z,1004.5
2022-12-04T07:33:42.806Z,1004.5
2022-12-04T07:34:59.758Z,1004.5
2022-12-04T07:36:16.708Z,1004.5
2022-12-04T07:37:33.753Z,1004.5
2022-12-04T07:38:50.796Z,1004.5
2022-12-04T07:40:08.139Z,1004.5
2022-12-04T07:41:24.752Z,1004.5
2022-12-04T07:42:41.725Z,1004.5
2022-12-04T07:43:58.729Z,1004.5
2022-12-04T07:45:15.872Z,1004.5
2022-12-04T07:46:32.824Z,1004.5
2022-12-04T07:47:49.763Z,1004.5
2022-12-04T07:49:06.726Z,1004.4
2022-12-04T07:50:23.762Z,1004.4
2022-12-04T07:51:40.761Z,1004.5
2022-12-04T07:52:57.796Z,1004.5
2022-12-04T07:54:15.504Z,1004.5
2022-12-04T07:55:32.745Z,1004.5
2022-12-04T07:56:49.871Z,1004.5
2022-12-04T07:58:07.763Z,1004.6
2022-12-04T07:59:24.877Z,1004.6
2022-12-04T08:00:41.761Z,1004.6
2022-12-04T08:01:58.818Z,1004.6
2022-12-04T08:03:16.072Z,1004.6
2022-12-04T08:04:32.844Z,1004.6
2022-12-04T08:05:49.764Z,1004.6
2022-12-04T08:07:06.785Z,1004.6
2022-12-04T08:08:23.977Z,1004.6
2022-12-04T08:09:40.757Z,1004.6
2022-12-04T08:10:58.124Z,1004.5
2022-12-04T08:12:14.799Z,1004.5
2022-12-04T08:13:31.788Z,1004.4
2022-12-04T08:14:48.809Z,1004.4
2022-12-04T08:16:05.792Z,1004.5
2022-12-04T08:17:22.950Z,1004.5
2022-12-04T08:18:40.199Z,1004.5
2022-12-04T08:19:57.021Z,1004.5
2022-12-04T08:21:14.133Z,1004.5
2022-12-04T08:22:30.824Z,1004.6
2022-12-04T08:23:48.014Z,1004.6
2022-12-04T08:25:04.826Z,1004.6
2022-12-04T08:26:21.804Z,1004.6
2022-12-04T08:27:41.010Z,1004.6
2022-12-04T08:28:55.833Z,1004.5
2022-12-04T08:30:13.120Z,1004.6
2022-12-04T08:31:29.843Z,1004.5
2022-12-04T08:32:46.799Z,1004.5
2022-12-04T08:34:03.929Z,1004.5
2022-12-04T08:35:20.829Z,1004.4
2022-12-04T08:36:37.810Z,1004.4
2022-12-04T08:37:54.861Z,1004.4
2022-12-04T08:39:11.841Z,1004.5
2022-12-04T08:40:28.903Z,1004.5
2022-12-04T08:41:45.822Z,1004.5
2022-12-04T08:43:02.809Z,1004.5
2022-12-04T08:44:19.806Z,1004.5
2022-12-04T08:45:36.884Z,1004.5
2022-12-04T08:46:54.602Z,1004.6
2022-12-04T08:48:11.821Z,1004.6
2022-12-04T08:49:28.810Z,1004.6
2022-12-04T08:50:45.882Z,1004.7
2022-12-04T08:52:02.859Z,1004.7
2022-12-04T08:53:19.923Z,1004.7
2022-12-04T08:54:36.885Z,1004.7
2022-12-04T08:55:54.031Z,1004.7
2022-12-04T08:57:10.925Z,1004.7
2022-12-04T08:58:28.643Z,1004.7
2022-12-04T08:59:45.860Z,1004.7
2022-12-04T09:01:02.921Z,1004.7
2022-12-04T09:02:19.838Z,1004.7
2022-12-04T09:03:36.833Z,1004.7
2022-12-04T09:04:54.030Z,1004.7
2022-12-04T09:06:10.886Z,1004.6
2022-12-04T09:07:27.940Z,1004.6
2022-12-04T09:08:44.851Z,1004.7
2022-12-04T09:10:02.174Z,1004.8
2022-12-04T09:11:18.856Z,1004.8
2022-12-04T09:12:35.836Z,1004.8
2022-12-04T09:13:52.876Z,1004.8
2022-12-04T09:15:10.666Z,1004.9
2022-12-04T09:16:27.943Z,1004.8
2022-12-04T09:17:44.849Z,1004.9
2022-12-04T09:19:01.894Z,1004.8
2022-12-04T09:20:18.844Z,1004.8
2022-12-04T09:21:35.925Z,1004.8
2022-12-04T09:23:03.715Z,1004.7
2022-12-04T09:24:09.855Z,1004.7
2022-12-04T09:25:26.895Z,1004.6
2022-12-04T09:26:43.947Z,1004.6
2022-12-04T09:28:00.875Z,1004.5
2022-12-04T09:29:17.860Z,1004.6
2022-12-04T09:30:34.951Z,1004.5
2022-12-04T09:31:51.950Z,1004.5
2022-12-04T09:33:08.901Z,1004.5
2022-12-04T09:34:25.903Z,1004.5
2022-12-04T09:35:43.625Z,1004.5
2022-12-04T09:37:00.876Z,1004.5
2022-12-04T09:38:17.908Z,1004.5
2022-12-04T09:39:35.877Z,1004.5
2022-12-04T09:40:52.908Z,1004.5
2022-12-04T09:42:09.926Z,1004.5
2022-12-04T09:43:26.920Z,1004.6
2022-12-04T09:44:43.925Z,1004.6
2022-12-04T09:46:00.944Z,1004.7
2022-12-04T09:47:18.076Z,1004.7
2022-12-04T09:48:34.949Z,1004.7
2022-12-04T09:49:51.973Z,1004.7
2022-12-04T09:51:08.945Z,1004.7
2022-12-04T09:52:26.748Z,1004.6
2022-12-04T09:53:43.896Z,1004.6
2022-12-04T09:55:00.931Z,1004.6
2022-12-04T09:56:17.924Z,1004.5
2022-12-04T09:57:35.005Z,1004.6
2022-12-04T10:02:46.141Z,1004.5
2022-12-04T10:04:06.244Z,1004.5
2022-12-04T10:05:19.970Z,1004.4
2022-12-04T10:06:37.484Z,1004.4
2022-12-04T10:07:55.026Z,1004.4
2022-12-04T10:09:12.143Z,1004.4
2022-12-04T10:10:29.060Z,1004.4
2022-12-04T10:11:45.960Z,1004.4
2022-12-04T10:13:02.938Z,1004.5
2022-12-04T10:14:19.984Z,1004.4
2022-12-04T10:15:36.996Z,1004.5
2022-12-04T10:16:53.936Z,1004.5
2022-12-04T10:18:11.020Z,1004.4
2022-12-04T10:19:27.959Z,1004.4
2022-12-04T10:20:44.933Z,1004.4
2022-12-04T10:22:01.969Z,1004.4
2022-12-04T10:23:19.009Z,1004.3
2022-12-04T10:24:37.106Z,1004.3
2022-12-04T10:25:53.964Z,1004.3
2022-12-04T10:27:10.973Z,1004.4
2022-12-04T10:28:27.974Z,1004.4
2022-12-04T10:29:44.956Z,1004.3
2022-12-04T10:31:02.118Z,1004.4
2022-12-04T10:32:18.960Z,1004.4
2022-12-04T10:33:37.430Z,1004.4
2022-12-04T10:34:57.112Z,1004.4
2022-12-04T10:36:14.961Z,1004.4
2022-12-04T10:37:31.964Z,1004.4
2022-12-04T10:38:48.997Z,1004.4
2022-12-04T10:40:06.010Z,1004.3
2022-12-04T10:41:23.032Z,1004.3
2022-12-04T10:42:40.139Z,1004.3
2022-12-04T10:43:56.991Z,1004.2
2022-12-04T10:45:13.974Z,1004.3
2022-12-04T10:46:31.053Z,1004.3
2022-12-04T10:47:48.113Z,1004.3
2022-12-04T10:49:06.159Z,1004.2
2022-12-04T10:50:25.246Z,1004.3
2022-12-04T10:51:42.011Z,1004.2
2022-12-04T10:52:59.063Z,1004.2
2022-12-04T10:54:15.997Z,1004.2
2022-12-04T10:55:32.995Z,1004.2
2022-12-04T10:56:49.985Z,1004.2
2022-12-04T10:58:07.168Z,1004.2
2022-12-04T10:59:24.102Z,1004.2
2022-12-04T11:00:41.061Z,1004.2
2022-12-04T11:07:46.187Z,1004.2
2022-12-04T11:09:03.128Z,1004.2
2022-12-04T11:10:20.075Z,1004.2
2022-12-04T11:11:37.017Z,1004.1
2022-12-04T11:12:54.120Z,1004.1
2022-12-04T11:14:11.056Z,1004
2022-12-04T11:15:28.031Z,1004
2022-12-04T11:16:46.534Z,1004
2022-12-04T11:18:05.371Z,1004
2022-12-04T11:19:23.025Z,1004
2022-12-04T11:20:44.083Z,1004
2022-12-04T11:21:57.051Z,1004
2022-12-04T11:23:14.767Z,1004
2022-12-04T11:24:32.089Z,1004
2022-12-04T11:25:49.292Z,1004
2022-12-04T11:27:06.082Z,1004
2022-12-04T11:28:40.385Z,1004
2022-12-04T11:29:40.068Z,1004
2022-12-04T11:30:57.392Z,1004
2022-12-04T11:32:14.065Z,1004
2022-12-04T11:33:31.147Z,1004
2022-12-04T11:34:48.053Z,1004
2022-12-04T11:36:05.122Z,1004.1
2022-12-04T11:37:22.053Z,1004
2022-12-04T11:38:39.065Z,1004
2022-12-04T11:39:56.702Z,1004
2022-12-04T11:41:13.096Z,1004
2022-12-04T11:42:30.083Z,1003.9
2022-12-04T11:43:47.069Z,1003.9
2022-12-04T11:45:04.299Z,1003.9
2022-12-04T11:46:21.134Z,1003.9
2022-12-04T11:47:38.073Z,1003.9
2022-12-04T11:48:55.119Z,1003.9
2022-12-04T11:50:12.091Z,1003.9
2022-12-04T11:51:29.670Z,1003.9
2022-12-04T11:52:47.060Z,1003.8
2022-12-04T11:54:04.222Z,1003.8
2022-12-04T11:59:16.111Z,1003.9
2022-12-04T12:00:34.957Z,1003.9
2022-12-04T12:01:56.416Z,1003.9
2022-12-04T12:03:08.450Z,1003.9
2022-12-04T12:04:25.298Z,1003.9
2022-12-04T12:05:42.098Z,1003.9
2022-12-04T12:06:59.172Z,1003.9
2022-12-04T12:08:16.131Z,1003.9
2022-12-04T12:09:33.121Z,1003.9
2022-12-04T12:10:50.099Z,1003.9
2022-12-04T12:12:07.167Z,1003.9
2022-12-04T12:13:24.334Z,1004
2022-12-04T12:14:41.199Z,1003.9
2022-12-04T12:15:58.433Z,1003.9
2022-12-04T12:17:15.154Z,1003.9
2022-12-04T12:18:32.178Z,1003.9
2022-12-04T12:19:49.135Z,1003.8
2022-12-04T12:21:06.119Z,1003.9
2022-12-04T12:22:23.142Z,1003.9
2022-12-04T12:23:40.619Z,1003.9
2022-12-04T12:24:58.506Z,1003.9
2022-12-04T12:26:15.159Z,1003.9
2022-12-04T12:27:32.146Z,1003.9
2022-12-04T12:28:49.176Z,1003.9
2022-12-04T12:30:06.316Z,1003.9
2022-12-04T12:31:23.261Z,1003.9
2022-12-04T12:32:40.167Z,1003.9
2022-12-04T12:33:57.174Z,1003.9
2022-12-04T12:35:14.269Z,1003.9
2022-12-04T12:36:31.132Z,1003.9
2022-12-04T12:37:48.203Z,1004
2022-12-04T12:39:05.141Z,1004
2022-12-04T12:40:22.173Z,1004.1
2022-12-04T12:41:39.169Z,1004.1
2022-12-04T12:42:58.357Z,1004.1
2022-12-04T12:44:13.148Z,1004
2022-12-04T12:45:30.270Z,1004
2022-12-04T12:46:47.206Z,1004
2022-12-04T12:48:04.181Z,1004
2022-12-04T12:49:21.266Z,1004
2022-12-04T12:50:38.156Z,1004
2022-12-04T12:51:55.237Z,1004
2022-12-04T12:53:12.175Z,1004
2022-12-04T12:54:29.188Z,1004.1
2022-12-04T12:55:46.190Z,1004.1
2022-12-04T12:57:03.218Z,1004.1
2022-12-04T12:58:20.193Z,1004.1
2022-12-04T12:59:37.237Z,1004.1
2022-12-04T13:00:54.238Z,1004.1
2022-12-04T13:02:11.250Z,1004.1
2022-12-04T13:03:28.209Z,1004.1
2022-12-04T13:04:45.174Z,1004.1
2022-12-04T13:06:02.275Z,1004.1
2022-12-04T13:07:19.203Z,1004
2022-12-04T13:08:36.193Z,1004
2022-12-04T13:09:53.440Z,1004
2022-12-04T13:11:10.268Z,1004
2022-12-04T13:12:27.194Z,1004
2022-12-04T13:13:44.179Z,1004
2022-12-04T13:15:01.217Z,1003.9
2022-12-04T13:16:18.241Z,1003.9
2022-12-04T13:17:35.230Z,1003.9
2022-12-04T13:18:52.207Z,1003.9
2022-12-04T13:20:10.335Z,1003.9
2022-12-04T13:21:26.283Z,1003.9
2022-12-04T13:22:43.266Z,1003.9
2022-12-04T13:24:00.203Z,1003.8
2022-12-04T13:25:17.215Z,1003.8
2022-12-04T13:26:34.273Z,1003.8
2022-12-04T13:27:51.227Z,1003.8
2022-12-04T13:29:08.194Z,1003.7
2022-12-04T13:30:25.268Z,1003.7
2022-12-04T13:31:42.308Z,1003.7
2022-12-04T13:32:59.262Z,1003.7
2022-12-04T13:34:16.225Z,1003.7
2022-12-04T13:35:33.229Z,1003.7
2022-12-04T13:36:50.306Z,1003.7
2022-12-04T13:38:07.217Z,1003.8
2022-12-04T13:39:24.231Z,1003.7
2022-12-04T13:40:41.270Z,1003.7
2022-12-04T13:41:58.230Z,1003.7
2022-12-04T13:43:15.231Z,1003.7
2022-12-04T13:44:32.721Z,1003.7
2022-12-04T13:45:49.314Z,1003.7
2022-12-04T13:47:06.283Z,1003.7
2022-12-04T13:48:23.307Z,1003.7
2022-12-04T13:49:40.431Z,1003.7
2022-12-04T13:50:57.246Z,1003.7
2022-12-04T13:52:14.230Z,1003.7
2022-12-04T13:53:31.249Z,1003.7
2022-12-04T13:54:48.259Z,1003.7
2022-12-04T13:56:08.753Z,1003.7
2022-12-04T13:57:22.256Z,1003.7
2022-12-04T13:58:39.820Z,1003.7
2022-12-04T13:59:57.265Z,1003.7
2022-12-04T14:01:14.331Z,1003.7
2022-12-04T14:02:31.291Z,1003.7
2022-12-04T14:03:48.289Z,1003.7
2022-12-04T14:05:05.303Z,1003.7
2022-12-04T14:06:22.413Z,1003.7
2022-12-04T14:07:39.338Z,1003.7
2022-12-04T14:08:56.340Z,1003.7
2022-12-04T14:10:13.269Z,1003.7
2022-12-04T14:11:30.352Z,1003.7
2022-12-04T14:12:47.286Z,1003.7
2022-12-04T14:14:08.018Z,1003.7
2022-12-04T14:15:21.287Z,1003.8
2022-12-04T14:16:38.878Z,1003.8
2022-12-04T14:17:55.273Z,1003.9
2022-12-04T14:19:12.294Z,1003.9
2022-12-04T14:20:29.316Z,1004
2022-12-04T14:21:46.308Z,1004
2022-12-04T14:23:03.292Z,1004
2022-12-04T14:24:20.314Z,1004
2022-12-04T14:25:37.314Z,1004
2022-12-04T14:28:11.343Z,1004
2022-12-04T14:29:28.290Z,1004
2022-12-04T14:30:45.366Z,1004
2022-12-04T14:32:02.377Z,1004
2022-12-04T14:33:20.084Z,1004
2022-12-04T14:34:36.323Z,1003.9
2022-12-04T14:35:53.339Z,1003.9
2022-12-04T14:37:10.297Z,1003.9
2022-12-04T14:38:27.314Z,1003.9
2022-12-04T14:39:44.301Z,1003.9
2022-12-04T14:41:01.323Z,1003.9
2022-12-04T14:42:18.341Z,1003.9
2022-12-04T14:43:35.340Z,1003.9
2022-12-04T14:44:52.384Z,1003.9
2022-12-04T14:46:09.400Z,1003.8
2022-12-04T14:47:26.379Z,1003.9
2022-12-04T14:48:43.560Z,1003.9
2022-12-04T14:50:00.579Z,1003.8
2022-12-04T14:51:17.351Z,1003.9
2022-12-04T14:52:34.427Z,1003.9
2022-12-04T14:53:51.355Z,1003.9
2022-12-04T14:55:08.345Z,1003.9
2022-12-04T14:56:25.322Z,1003.9
2022-12-04T14:57:42.342Z,1004
2022-12-04T14:58:59.422Z,1004
2022-12-04T15:00:16.344Z,1004
2022-12-04T15:01:33.338Z,1004
2022-12-04T15:02:50.372Z,1004
2022-12-04T15:04:07.421Z,1004
2022-12-04T15:05:24.364Z,1004
2022-12-04T15:06:41.344Z,1004.1
2022-12-04T15:07:58.448Z,1004.1
2022-12-04T15:09:15.409Z,1004.1
2022-12-04T15:10:32.360Z,1004.1
2022-12-04T15:11:49.353Z,1004.1
2022-12-04T15:13:06.341Z,1004
2022-12-04T15:14:23.853Z,1004
2022-12-04T15:15:40.409Z,1004
2022-12-04T15:16:57.490Z,1004
2022-12-04T15:18:14.369Z,1004
2022-12-04T15:19:31.370Z,1003.9
2022-12-04T15:20:48.406Z,1003.9
2022-12-04T15:22:10.170Z,1003.9
2022-12-04T15:23:22.757Z,1003.9
2022-12-04T15:24:39.390Z,1003.9
2022-12-04T15:25:56.609Z,1003.9
2022-12-04T15:27:13.360Z,1003.9
2022-12-04T15:28:30.399Z,1003.9
2022-12-04T15:29:47.358Z,1004
2022-12-04T15:31:04.450Z,1004
2022-12-04T15:32:21.371Z,1003.9
2022-12-04T15:33:38.402Z,1003.9
2022-12-04T15:34:55.657Z,1004
2022-12-04T15:36:12.444Z,1004
2022-12-04T15:37:29.381Z,1004
2022-12-04T15:38:46.378Z,1004
2022-12-04T15:40:03.662Z,1004
2022-12-04T15:41:22.744Z,1004
2022-12-04T15:42:37.379Z,1004
2022-12-04T15:43:54.401Z,1003.9
2022-12-04T15:45:11.452Z,1003.9
2022-12-04T15:46:28.455Z,1004
2022-12-04T15:47:45.420Z,1004
2022-12-04T15:49:02.716Z,1004
2022-12-04T15:50:19.432Z,1004
2022-12-04T15:51:36.469Z,1004
2022-12-04T15:52:53.456Z,1004.1
2022-12-04T15:54:10.422Z,1004.1
2022-12-04T15:55:27.410Z,1004.1
2022-12-04T15:56:44.415Z,1004.1
2022-12-04T15:58:01.439Z,1004.1
2022-12-04T15:59:18.409Z,1004.1
2022-12-04T16:00:35.452Z,1004.1
2022-12-04T16:01:52.495Z,1004.1
2022-12-04T16:03:09.410Z,1004.1
2022-12-04T16:04:26.497Z,1004.1
2022-12-04T16:05:43.443Z,1004.2
2022-12-04T16:07:00.448Z,1004.2
2022-12-04T16:08:17.413Z,1004.2
2022-12-04T16:09:34.454Z,1004.2
2022-12-04T16:10:51.446Z,1004.2
2022-12-04T16:12:08.424Z,1004.2
2022-12-04T16:13:25.425Z,1004.2
2022-12-04T16:14:42.475Z,1004.2
2022-12-04T16:15:59.489Z,1004.1
2022-12-04T16:17:16.464Z,1004.1
2022-12-04T16:18:33.439Z,1004.1
2022-12-04T16:19:50.443Z,1004.1
2022-12-04T16:21:07.494Z,1004.1
2022-12-04T16:22:24.512Z,1004.1